Terminal Aerodrome Forecast
Issued by NWS Memphis, TN

Home | Current Version | Previous Version | Text Only | Print | Product List | Glossary On
Versions: 1 2 3 4 5 6 7 8 9 10 11 12
316
FTUS44 KMEG 091130
TAFMKL
TAF
KMKL 091130Z 0912/1012 30010G16KT P6SM -SHSN FEW025 BKN035 OVC045
     FM091400 31014G20KT P6SM -SHSN SCT025 OVC035
      TEMPO 0914/0918 BKN025
     FM091900 30014G20KT P6SM SCT035 BKN050
     FM100000 31006KT P6SM SCT050 SCT250=

USA.gov is the U.S. government's official web portal to all federal, state and local government web resources and services.